sensor_id;sensor_type;location;lat;lon;timestamp;temperature;humidity
5128;DHT22;2582;48.770;9.190;2023-04-03T00:01:27;5.90;99.90
5128;DHT22;2582;48.770;9.190;2023-04-03T00:03:53;5.80;99.90
5128;DHT22;2582;48.770;9.190;2023-04-03T00:06:20;5.90;99.90
5128;DHT22;2582;48.770;9.190;2023-04-03T00:08:45;6.00;99.90
5128;DHT22;2582;48.770;9.190;2023-04-03T00:11:11;6.10;99.90
5128;DHT22;2582;48.770;9.190;2023-04-03T00:13:38;6.00;99.90
5128;DHT22;2582;48.770;9.190;2023-04-03T00:16:04;6.20;99.90
5128;DHT22;2582;48.770;9.190;2023-04-03T00:18:29;6.10;99.90
5128;DHT22;2582;48.770;9.190;2023-04-03T00:20:55;5.90;99.90
5128;DHT22;2582;48.770;9.190;2023-04-03T00:23:21;6.10;99.90
5128;DHT22;2582;48.770;9.190;2023-04-03T00:25:49;6.20;99.90
5128;DHT22;2582;48.770;9.190;2023-04-03T00:28:14;6.40;99.90
5128;DHT22;2582;48.770;9.190;2023-04-03T00:30:40;6.50;99.90
5128;DHT22;2582;48.770;9.190;2023-04-03T00:33:06;6.50;99.90
5128;DHT22;2582;48.770;9.190;2023-04-03T00:35:32;6.60;99.90
5128;DHT22;2582;48.770;9.190;2023-04-03T00:37:59;6.50;99.90
5128;DHT22;2582;48.770;9.190;2023-04-03T00:40:25;6.70;99.90
5128;DHT22;2582;48.770;9.190;2023-04-03T00:42:56;6.70;99.90
5128;DHT22;2582;48.770;9.190;2023-04-03T00:45:39;6.70;99.90
5128;DHT22;2582;48.770;9.190;2023-04-03T00:48:08;6.70;99.90
5128;DHT22;2582;48.770;9.190;2023-04-03T00:50:37;6.40;99.90
5128;DHT22;2582;48.770;9.190;2023-04-03T00:53:05;6.20;99.90
5128;DHT22;2582;48.770;9.190;2023-04-03T00:55:31;6.10;99.90
5128;DHT22;2582;48.770;9.190;2023-04-03T00:57:58;6.10;99.90
5128;DHT22;2582;48.770;9.190;2023-04-03T01:00:24;6.00;99.90
5128;DHT22;2582;48.770;9.190;2023-04-03T01:02:51;6.10;99.90
5128;DHT22;2582;48.770;9.190;2023-04-03T01:05:17;5.80;99.90
5128;DHT22;2582;48.770;9.190;2023-04-03T01:07:45;5.90;99.90
5128;DHT22;2582;48.770;9.190;2023-04-03T01:10:13;6.00;99.90
5128;DHT22;2582;48.770;9.190;2023-04-03T01:12:42;6.10;99.90
5128;DHT22;2582;48.770;9.190;2023-04-03T01:15:11;6.10;99.90
5128;DHT22;2582;48.770;9.190;2023-04-03T01:17:42;5.90;99.90
5128;DHT22;2582;48.770;9.190;2023-04-03T01:25:39;6.00;99.90
5128;DHT22;2582;48.770;9.190;2023-04-03T01:28:06;6.10;99.90
5128;DHT22;2582;48.770;9.190;2023-04-03T01:30:35;6.00;99.90
5128;DHT22;2582;48.770;9.190;2023-04-03T01:33:02;6.20;99.90
5128;DHT22;2582;48.770;9.190;2023-04-03T01:35:27;6.40;99.90
5128;DHT22;2582;48.770;9.190;2023-04-03T01:37:53;6.00;99.90
5128;DHT22;2582;48.770;9.190;2023-04-03T01:40:19;5.90;99.90
5128;DHT22;2582;48.770;9.190;2023-04-03T01:42:44;6.00;99.90
5128;DHT22;2582;48.770;9.190;2023-04-03T01:45:10;5.80;99.90
5128;DHT22;2582;48.770;9.190;2023-04-03T01:47:36;5.90;99.90
5128;DHT22;2582;48.770;9.190;2023-04-03T01:50:02;5.90;99.90
5128;DHT22;2582;48.770;9.190;2023-04-03T01:52:27;5.60;99.90
5128;DHT22;2582;48.770;9.190;2023-04-03T01:54:53;5.60;99.90
5128;DHT22;2582;48.770;9.190;2023-04-03T01:57:19;5.90;99.90
5128;DHT22;2582;48.770;9.190;2023-04-03T01:59:44;6.10;99.90
5128;DHT22;2582;48.770;9.190;2023-04-03T02:02:10;6.20;99.90
5128;DHT22;2582;48.770;9.190;2023-04-03T02:04:37;6.30;99.90
5128;DHT22;2582;48.770;9.190;2023-04-03T02:07:03;6.30;99.90
5128;DHT22;2582;48.770;9.190;2023-04-03T02:09:29;6.40;99.90
5128;DHT22;2582;48.770;9.190;2023-04-03T02:11:54;6.20;99.90
5128;DHT22;2582;48.770;9.190;2023-04-03T02:14:20;6.40;99.90
5128;DHT22;2582;48.770;9.190;2023-04-03T02:16:47;6.40;99.90
5128;DHT22;2582;48.770;9.190;2023-04-03T02:19:12;6.30;99.90
5128;DHT22;2582;48.770;9.190;2023-04-03T02:21:38;6.40;99.90
5128;DHT22;2582;48.770;9.190;2023-04-03T02:24:03;6.20;99.90
5128;DHT22;2582;48.770;9.190;2023-04-03T02:26:29;6.10;99.90
5128;DHT22;2582;48.770;9.190;2023-04-03T02:28:55;6.10;99.90
5128;DHT22;2582;48.770;9.190;2023-04-03T02:31:20;6.10;99.90
5128;DHT22;2582;48.770;9.190;2023-04-03T02:33:46;6.10;99.90
5128;DHT22;2582;48.770;9.190;2023-04-03T02:36:11;6.10;99.90
5128;DHT22;2582;48.770;9.190;2023-04-03T02:38:37;6.00;99.90
5128;DHT22;2582;48.770;9.190;2023-04-03T02:41:05;6.10;99.90
5128;DHT22;2582;48.770;9.190;2023-04-03T02:43:31;6.10;99.90
5128;DHT22;2582;48.770;9.190;2023-04-03T02:45:56;6.00;99.90
5128;DHT22;2582;48.770;9.190;2023-04-03T02:48:23;6.10;99.90
5128;DHT22;2582;48.770;9.190;2023-04-03T02:50:49;6.40;99.90
5128;DHT22;2582;48.770;9.190;2023-04-03T02:53:15;6.30;99.90
5128;DHT22;2582;48.770;9.190;2023-04-03T02:55:41;6.40;99.90
5128;DHT22;2582;48.770;9.190;2023-04-03T02:58:07;6.50;99.90
5128;DHT22;2582;48.770;9.190;2023-04-03T03:00:32;6.50;99.90
5128;DHT22;2582;48.770;9.190;2023-04-03T03:02:58;6.40;99.90
5128;DHT22;2582;48.770;9.190;2023-04-03T03:05:24;6.50;99.90
5128;DHT22;2582;48.770;9.190;2023-04-03T03:07:49;6.40;99.90
5128;DHT22;2582;48.770;9.190;2023-04-03T03:10:15;6.20;99.90
5128;DHT22;2582;48.770;9.190;2023-04-03T03:12:41;6.20;99.90
5128;DHT22;2582;48.770;9.190;2023-04-03T03:15:07;6.20;99.90
5128;DHT22;2582;48.770;9.190;2023-04-03T03:17:33;5.90;99.90
5128;DHT22;2582;48.770;9.190;2023-04-03T03:19:59;5.60;99.90
5128;DHT22;2582;48.770;9.190;2023-04-03T03:22:25;5.50;99.90
5128;DHT22;2582;48.770;9.190;2023-04-03T03:24:51;5.70;99.90
5128;DHT22;2582;48.770;9.190;2023-04-03T03:27:17;5.70;99.90
5128;DHT22;2582;48.770;9.190;2023-04-03T03:29:42;5.90;99.90
5128;DHT22;2582;48.770;9.190;2023-04-03T03:32:08;6.00;99.90
5128;DHT22;2582;48.770;9.190;2023-04-03T03:34:33;6.00;99.90
5128;DHT22;2582;48.770;9.190;2023-04-03T03:37:00;6.00;99.90
5128;DHT22;2582;48.770;9.190;2023-04-03T03:39:26;6.10;99.90
5128;DHT22;2582;48.770;9.190;2023-04-03T03:41:51;6.10;99.90
5128;DHT22;2582;48.770;9.190;2023-04-03T03:44:19;6.00;99.90
5128;DHT22;2582;48.770;9.190;2023-04-03T03:46:45;6.00;99.90
5128;DHT22;2582;48.770;9.190;2023-04-03T03:49:10;6.30;99.90
5128;DHT22;2582;48.770;9.190;2023-04-03T03:51:37;6.30;99.90
5128;DHT22;2582;48.770;9.190;2023-04-03T03:54:03;6.50;99.90
5128;DHT22;2582;48.770;9.190;2023-04-03T03:56:29;6.50;99.90
5128;DHT22;2582;48.770;9.190;2023-04-03T03:58:54;6.30;99.90
5128;DHT22;2582;48.770;9.190;2023-04-03T04:01:21;6.00;99.90
5128;DHT22;2582;48.770;9.190;2023-04-03T04:03:47;5.60;99.90
5128;DHT22;2582;48.770;9.190;2023-04-03T04:06:13;5.50;99.90
5128;DHT22;2582;48.770;9.190;2023-04-03T04:08:39;5.50;99.90
5128;DHT22;2582;48.770;9.190;2023-04-03T04:11:05;5.50;99.90
5128;DHT22;2582;48.770;9.190;2023-04-03T04:13:30;5.50;99.90
5128;DHT22;2582;48.770;9.190;2023-04-03T04:15:56;5.50;99.90
5128;DHT22;2582;48.770;9.190;2023-04-03T04:18:22;5.60;99.90
5128;DHT22;2582;48.770;9.190;2023-04-03T04:20:48;5.70;99.90
5128;DHT22;2582;48.770;9.190;2023-04-03T04:23:13;5.80;99.90
5128;DHT22;2582;48.770;9.190;2023-04-03T04:25:40;5.80;99.90
5128;DHT22;2582;48.770;9.190;2023-04-03T04:28:06;5.50;99.90
5128;DHT22;2582;48.770;9.190;2023-04-03T04:30:31;5.70;99.90
5128;DHT22;2582;48.770;9.190;2023-04-03T04:32:57;5.70;99.90
5128;DHT22;2582;48.770;9.190;2023-04-03T04:35:22;5.70;99.90
5128;DHT22;2582;48.770;9.190;2023-04-03T04:37:48;5.80;99.90
5128;DHT22;2582;48.770;9.190;2023-04-03T04:40:14;5.80;99.90
5128;DHT22;2582;48.770;9.190;2023-04-03T04:42:39;5.90;99.90
5128;DHT22;2582;48.770;9.190;2023-04-03T04:45:05;5.90;99.90
5128;DHT22;2582;48.770;9.190;2023-04-03T04:47:31;5.80;99.90
5128;DHT22;2582;48.770;9.190;2023-04-03T04:49:57;5.90;99.90
5128;DHT22;2582;48.770;9.190;2023-04-03T04:52:22;5.90;99.90
5128;DHT22;2582;48.770;9.190;2023-04-03T04:54:48;5.80;99.90
5128;DHT22;2582;48.770;9.190;2023-04-03T04:57:13;5.90;99.90
5128;DHT22;2582;48.770;9.190;2023-04-03T04:59:39;5.90;99.90
5128;DHT22;2582;48.770;9.190;2023-04-03T05:02:04;6.10;99.90
5128;DHT22;2582;48.770;9.190;2023-04-03T05:04:30;6.00;99.90
5128;DHT22;2582;48.770;9.190;2023-04-03T05:06:56;6.00;99.90
5128;DHT22;2582;48.770;9.190;2023-04-03T05:09:21;6.00;99.90
5128;DHT22;2582;48.770;9.190;2023-04-03T05:11:47;6.20;99.90
5128;DHT22;2582;48.770;9.190;2023-04-03T05:14:13;6.20;99.90
5128;DHT22;2582;48.770;9.190;2023-04-03T05:16:38;6.30;99.90
5128;DHT22;2582;48.770;9.190;2023-04-03T05:19:04;6.20;99.90
5128;DHT22;2582;48.770;9.190;2023-04-03T05:21:30;6.20;99.90
5128;DHT22;2582;48.770;9.190;2023-04-03T05:23:58;6.20;99.90
5128;DHT22;2582;48.770;9.190;2023-04-03T05:26:25;6.30;99.90
5128;DHT22;2582;48.770;9.190;2023-04-03T05:28:51;6.30;99.90
5128;DHT22;2582;48.770;9.190;2023-04-03T05:31:17;6.10;99.90
5128;DHT22;2582;48.770;9.190;2023-04-03T05:33:42;6.10;99.90
5128;DHT22;2582;48.770;9.190;2023-04-03T05:36:08;5.70;99.90
5128;DHT22;2582;48.770;9.190;2023-04-03T05:38:34;5.60;99.90
5128;DHT22;2582;48.770;9.190;2023-04-03T05:40:59;5.50;99.90
5128;DHT22;2582;48.770;9.190;2023-04-03T05:43:25;5.30;99.90
5128;DHT22;2582;48.770;9.190;2023-04-03T05:45:51;5.40;99.90
5128;DHT22;2582;48.770;9.190;2023-04-03T05:48:18;5.50;99.90
5128;DHT22;2582;48.770;9.190;2023-04-03T05:50:44;5.50;99.90
5128;DHT22;2582;48.770;9.190;2023-04-03T05:53:27;5.40;99.90
5128;DHT22;2582;48.770;9.190;2023-04-03T05:55:53;5.30;99.90
5128;DHT22;2582;48.770;9.190;2023-04-03T05:58:19;5.10;99.90
5128;DHT22;2582;48.770;9.190;2023-04-03T06:00:44;5.20;99.90
5128;DHT22;2582;48.770;9.190;2023-04-03T06:03:10;5.20;99.90
5128;DHT22;2582;48.770;9.190;2023-04-03T06:05:36;5.30;99.90
5128;DHT22;2582;48.770;9.190;2023-04-03T06:08:02;5.10;99.90
5128;DHT22;2582;48.770;9.190;2023-04-03T06:10:28;5.10;99.90
5128;DHT22;2582;48.770;9.190;2023-04-03T06:12:54;5.20;99.90
5128;DHT22;2582;48.770;9.190;2023-04-03T06:15:20;5.30;99.90
5128;DHT22;2582;48.770;9.190;2023-04-03T06:17:46;5.40;99.90
5128;DHT22;2582;48.770;9.190;2023-04-03T06:20:12;5.50;99.90
5128;DHT22;2582;48.770;9.190;2023-04-03T06:22:38;5.50;99.90
5128;DHT22;2582;48.770;9.190;2023-04-03T06:25:05;5.40;99.90
5128;DHT22;2582;48.770;9.190;2023-04-03T06:27:31;5.30;99.90
5128;DHT22;2582;48.770;9.190;2023-04-03T06:29:57;5.40;99.90
5128;DHT22;2582;48.770;9.190;2023-04-03T06:32:22;5.30;99.90
5128;DHT22;2582;48.770;9.190;2023-04-03T06:34:48;5.50;99.90
5128;DHT22;2582;48.770;9.190;2023-04-03T06:37:19;5.40;99.90
5128;DHT22;2582;48.770;9.190;2023-04-03T06:39:46;5.40;99.90
5128;DHT22;2582;48.770;9.190;2023-04-03T06:42:11;5.40;99.90
5128;DHT22;2582;48.770;9.190;2023-04-03T06:44:37;5.40;99.90
5128;DHT22;2582;48.770;9.190;2023-04-03T06:47:03;5.60;99.90
5128;DHT22;2582;48.770;9.190;2023-04-03T06:49:29;5.50;99.90
5128;DHT22;2582;48.770;9.190;2023-04-03T06:51:55;5.60;99.90
5128;DHT22;2582;48.770;9.190;2023-04-03T06:54:21;5.60;99.90
5128;DHT22;2582;48.770;9.190;2023-04-03T06:56:47;5.50;99.90
5128;DHT22;2582;48.770;9.190;2023-04-03T06:59:13;5.50;99.90
5128;DHT22;2582;48.770;9.190;2023-04-03T07:01:39;5.50;99.90
5128;DHT22;2582;48.770;9.190;2023-04-03T07:04:06;5.80;99.90
5128;DHT22;2582;48.770;9.190;2023-04-03T07:06:31;5.90;99.90
5128;DHT22;2582;48.770;9.190;2023-04-03T07:08:59;5.50;99.90
5128;DHT22;2582;48.770;9.190;2023-04-03T07:11:25;5.60;99.90
5128;DHT22;2582;48.770;9.190;2023-04-03T07:13:51;5.60;99.90
5128;DHT22;2582;48.770;9.190;2023-04-03T07:16:17;5.70;99.90
5128;DHT22;2582;48.770;9.190;2023-04-03T07:18:44;5.70;99.90
5128;DHT22;2582;48.770;9.190;2023-04-03T07:21:10;5.70;99.90
5128;DHT22;2582;48.770;9.190;2023-04-03T07:23:35;5.90;99.90
5128;DHT22;2582;48.770;9.190;2023-04-03T07:26:01;5.90;99.90
5128;DHT22;2582;48.770;9.190;2023-04-03T07:28:27;5.70;99.90
5128;DHT22;2582;48.770;9.190;2023-04-03T07:30:59;5.70;99.90
5128;DHT22;2582;48.770;9.190;2023-04-03T07:33:25;5.70;99.90
5128;DHT22;2582;48.770;9.190;2023-04-03T07:35:51;5.80;99.90
5128;DHT22;2582;48.770;9.190;2023-04-03T07:38:17;6.10;99.90
5128;DHT22;2582;48.770;9.190;2023-04-03T07:40:48;6.00;99.90
5128;DHT22;2582;48.770;9.190;2023-04-03T07:43:15;6.00;99.90
5128;DHT22;2582;48.770;9.190;2023-04-03T07:45:41;6.20;99.90
5128;DHT22;2582;48.770;9.190;2023-04-03T07:48:07;6.10;99.90
5128;DHT22;2582;48.770;9.190;2023-04-03T07:50:33;6.30;99.90
5128;DHT22;2582;48.770;9.190;2023-04-03T07:52:58;6.40;99.90
5128;DHT22;2582;48.770;9.190;2023-04-03T07:55:25;6.50;99.90
5128;DHT22;2582;48.770;9.190;2023-04-03T07:57:51;6.60;99.90
5128;DHT22;2582;48.770;9.190;2023-04-03T08:00:17;6.70;99.90
5128;DHT22;2582;48.770;9.190;2023-04-03T08:02:45;6.60;99.90
5128;DHT22;2582;48.770;9.190;2023-04-03T08:05:18;6.20;99.90
5128;DHT22;2582;48.770;9.190;2023-04-03T08:07:43;6.50;99.90
5128;DHT22;2582;48.770;9.190;2023-04-03T08:10:09;6.70;99.90
5128;DHT22;2582;48.770;9.190;2023-04-03T08:12:35;6.90;99.90
5128;DHT22;2582;48.770;9.190;2023-04-03T08:15:03;6.70;99.90
5128;DHT22;2582;48.770;9.190;2023-04-03T08:17:28;6.90;99.90
5128;DHT22;2582;48.770;9.190;2023-04-03T08:19:54;7.10;99.90
5128;DHT22;2582;48.770;9.190;2023-04-03T08:22:20;7.10;99.90
5128;DHT22;2582;48.770;9.190;2023-04-03T08:24:46;7.10;99.90
5128;DHT22;2582;48.770;9.190;2023-04-03T08:27:11;6.90;99.90
5128;DHT22;2582;48.770;9.190;2023-04-03T08:29:37;6.60;99.90
5128;DHT22;2582;48.770;9.190;2023-04-03T08:32:04;6.70;99.90
5128;DHT22;2582;48.770;9.190;2023-04-03T08:34:30;6.70;99.90
5128;DHT22;2582;48.770;9.190;2023-04-03T08:37:00;6.70;99.90
5128;DHT22;2582;48.770;9.190;2023-04-03T08:39:26;6.80;99.90
5128;DHT22;2582;48.770;9.190;2023-04-03T08:41:58;6.50;99.90
5128;DHT22;2582;48.770;9.190;2023-04-03T08:44:41;6.50;99.90
5128;DHT22;2582;48.770;9.190;2023-04-03T08:47:24;6.60;99.90
5128;DHT22;2582;48.770;9.190;2023-04-03T08:49:59;6.60;99.90
5128;DHT22;2582;48.770;9.190;2023-04-03T08:52:34;6.70;99.90
5128;DHT22;2582;48.770;9.190;2023-04-03T08:55:03;6.60;99.90
5128;DHT22;2582;48.770;9.190;2023-04-03T08:57:38;6.70;99.90
5128;DHT22;2582;48.770;9.190;2023-04-03T09:00:30;6.90;99.90
5128;DHT22;2582;48.770;9.190;2023-04-03T09:02:55;6.90;99.90
5128;DHT22;2582;48.770;9.190;2023-04-03T09:05:40;7.10;99.90
5128;DHT22;2582;48.770;9.190;2023-04-03T09:08:27;7.10;99.90
5128;DHT22;2582;48.770;9.190;2023-04-03T09:11:41;7.20;99.90
5128;DHT22;2582;48.770;9.190;2023-04-03T09:16:39;7.40;99.90
5128;DHT22;2582;48.770;9.190;2023-04-03T09:22:07;7.40;99.90
5128;DHT22;2582;48.770;9.190;2023-04-03T09:24:36;7.20;99.90
5128;DHT22;2582;48.770;9.190;2023-04-03T09:27:09;7.20;99.90
5128;DHT22;2582;48.770;9.190;2023-04-03T09:29:39;7.50;99.90
5128;DHT22;2582;48.770;9.190;2023-04-03T09:32:22;7.50;99.90
5128;DHT22;2582;48.770;9.190;2023-04-03T11:02:37;6.50;99.90
5128;DHT22;2582;48.770;9.190;2023-04-03T11:05:32;7.60;99.90
5128;DHT22;2582;48.770;9.190;2023-04-03T11:07:55;7.50;99.90
5128;DHT22;2582;48.770;9.190;2023-04-03T11:10:37;7.70;99.90
5128;DHT22;2582;48.770;9.190;2023-04-03T11:16:26;7.80;99.90
5128;DHT22;2582;48.770;9.190;2023-04-03T11:21:46;8.30;99.70
5128;DHT22;2582;48.770;9.190;2023-04-03T11:24:25;8.50;99.90
5128;DHT22;2582;48.770;9.190;2023-04-03T11:26:54;8.50;98.90
5128;DHT22;2582;48.770;9.190;2023-04-03T11:29:24;8.50;98.70
5128;DHT22;2582;48.770;9.190;2023-04-03T11:34:40;8.60;98.20
5128;DHT22;2582;48.770;9.190;2023-04-03T11:37:49;8.40;98.40
5128;DHT22;2582;48.770;9.190;2023-04-03T11:40:26;8.20;99.10
5128;DHT22;2582;48.770;9.190;2023-04-03T11:43:16;8.10;99.50
5128;DHT22;2582;48.770;9.190;2023-04-03T11:46:06;8.10;99.50
5128;DHT22;2582;48.770;9.190;2023-04-03T11:51:01;7.60;99.80
5128;DHT22;2582;48.770;9.190;2023-04-03T11:53:36;7.60;99.90
5128;DHT22;2582;48.770;9.190;2023-04-03T11:56:27;7.80;99.90
5128;DHT22;2582;48.770;9.190;2023-04-03T12:04:12;7.90;98.50
5128;DHT22;2582;48.770;9.190;2023-04-03T12:09:26;7.70;99.00
5128;DHT22;2582;48.770;9.190;2023-04-03T12:11:53;7.80;99.00
5128;DHT22;2582;48.770;9.190;2023-04-03T12:14:22;7.80;98.90
5128;DHT22;2582;48.770;9.190;2023-04-03T12:16:50;7.80;99.40
5128;DHT22;2582;48.770;9.190;2023-04-03T12:19:36;7.80;99.50
5128;DHT22;2582;48.770;9.190;2023-04-03T12:22:08;8.00;99.40
5128;DHT22;2582;48.770;9.190;2023-04-03T12:24:39;8.30;98.90
5128;DHT22;2582;48.770;9.190;2023-04-03T12:27:24;8.00;98.50
5128;DHT22;2582;48.770;9.190;2023-04-03T12:30:12;8.00;98.60
5128;DHT22;2582;48.770;9.190;2023-04-03T12:32:57;7.90;98.90
5128;DHT22;2582;48.770;9.190;2023-04-03T12:43:25;8.60;98.30
5128;DHT22;2582;48.770;9.190;2023-04-03T12:46:17;8.30;97.90
5128;DHT22;2582;48.770;9.190;2023-04-03T12:48:54;8.40;97.70
5128;DHT22;2582;48.770;9.190;2023-04-03T12:51:26;8.50;97.00
5128;DHT22;2582;48.770;9.190;2023-04-03T12:54:00;8.60;96.60
5128;DHT22;2582;48.770;9.190;2023-04-03T12:56:29;8.80;96.10
5128;DHT22;2582;48.770;9.190;2023-04-03T13:01:41;8.20;97.20
5128;DHT22;2582;48.770;9.190;2023-04-03T13:04:10;8.00;97.40
5128;DHT22;2582;48.770;9.190;2023-04-03T13:06:41;8.00;97.20
5128;DHT22;2582;48.770;9.190;2023-04-03T13:09:29;8.00;97.30
5128;DHT22;2582;48.770;9.190;2023-04-03T13:12:11;8.90;96.90
5128;DHT22;2582;48.770;9.190;2023-04-03T13:14:37;10.90;94.90
5128;DHT22;2582;48.770;9.190;2023-04-03T13:17:10;11.50;91.90
5128;DHT22;2582;48.770;9.190;2023-04-03T13:19:38;11.30;91.20
5128;DHT22;2582;48.770;9.190;2023-04-03T13:22:36;10.50;90.90
5128;DHT22;2582;48.770;9.190;2023-04-03T13:25:07;10.00;91.40
5128;DHT22;2582;48.770;9.190;2023-04-03T13:27:33;10.10;91.50
5128;DHT22;2582;48.770;9.190;2023-04-03T13:30:01;10.00;91.20
5128;DHT22;2582;48.770;9.190;2023-04-03T13:32:30;9.70;92.00
5128;DHT22;2582;48.770;9.190;2023-04-03T13:34:57;9.80;92.10
5128;DHT22;2582;48.770;9.190;2023-04-03T13:37:27;9.60;92.40
5128;DHT22;2582;48.770;9.190;2023-04-03T13:40:04;9.40;92.70
5128;DHT22;2582;48.770;9.190;2023-04-03T13:42:38;9.00;91.90
5128;DHT22;2582;48.770;9.190;2023-04-03T13:45:20;9.10;92.50
5128;DHT22;2582;48.770;9.190;2023-04-03T13:47:48;9.30;92.40
5128;DHT22;2582;48.770;9.190;2023-04-03T13:50:15;9.90;91.70
5128;DHT22;2582;48.770;9.190;2023-04-03T13:53:00;10.10;90.40
5128;DHT22;2582;48.770;9.190;2023-04-03T13:55:35;10.00;90.10
5128;DHT22;2582;48.770;9.190;2023-04-03T14:03:40;10.10;90.40
5128;DHT22;2582;48.770;9.190;2023-04-03T14:06:10;10.00;90.30
5128;DHT22;2582;48.770;9.190;2023-04-03T14:08:36;10.20;89.70
5128;DHT22;2582;48.770;9.190;2023-04-03T14:11:02;9.80;90.30
5128;DHT22;2582;48.770;9.190;2023-04-03T14:13:30;9.60;90.70
5128;DHT22;2582;48.770;9.190;2023-04-03T14:15:56;9.40;91.00
5128;DHT22;2582;48.770;9.190;2023-04-03T14:18:21;9.20;91.70
5128;DHT22;2582;48.770;9.190;2023-04-03T14:20:48;9.10;91.70
5128;DHT22;2582;48.770;9.190;2023-04-03T14:23:13;9.00;91.90
5128;DHT22;2582;48.770;9.190;2023-04-03T14:25:40;8.80;91.90
5128;DHT22;2582;48.770;9.190;2023-04-03T14:28:18;8.70;91.80
5128;DHT22;2582;48.770;9.190;2023-04-03T14:30:45;8.50;92.20
5128;DHT22;2582;48.770;9.190;2023-04-03T14:33:17;8.70;92.40
5128;DHT22;2582;48.770;9.190;2023-04-03T14:35:43;8.80;92.30
5128;DHT22;2582;48.770;9.190;2023-04-03T14:38:30;9.10;92.40
5128;DHT22;2582;48.770;9.190;2023-04-03T14:40:57;11.20;90.40
5128;DHT22;2582;48.770;9.190;2023-04-03T14:43:23;12.00;85.80
5128;DHT22;2582;48.770;9.190;2023-04-03T14:45:49;13.80;80.70
5128;DHT22;2582;48.770;9.190;2023-04-03T14:48:21;12.70;77.70
5128;DHT22;2582;48.770;9.190;2023-04-03T14:50:48;13.10;78.60
5128;DHT22;2582;48.770;9.190;2023-04-03T14:53:14;12.60;77.40
5128;DHT22;2582;48.770;9.190;2023-04-03T14:55:43;11.60;78.10
5128;DHT22;2582;48.770;9.190;2023-04-03T14:58:13;10.70;81.30
5128;DHT22;2582;48.770;9.190;2023-04-03T15:00:40;10.20;82.10
5128;DHT22;2582;48.770;9.190;2023-04-03T15:03:05;10.00;84.20
5128;DHT22;2582;48.770;9.190;2023-04-03T15:05:31;9.40;85.60
5128;DHT22;2582;48.770;9.190;2023-04-03T15:07:57;9.20;86.40
5128;DHT22;2582;48.770;9.190;2023-04-03T15:10:28;9.40;86.60
5128;DHT22;2582;48.770;9.190;2023-04-03T15:12:54;9.40;85.90
5128;DHT22;2582;48.770;9.190;2023-04-03T15:15:22;9.10;85.00
5128;DHT22;2582;48.770;9.190;2023-04-03T15:17:51;9.00;85.70
5128;DHT22;2582;48.770;9.190;2023-04-03T15:20:22;9.10;86.30
5128;DHT22;2582;48.770;9.190;2023-04-03T15:22:48;9.00;85.50
5128;DHT22;2582;48.770;9.190;2023-04-03T15:25:14;8.80;86.00
5128;DHT22;2582;48.770;9.190;2023-04-03T15:27:40;9.10;86.20
5128;DHT22;2582;48.770;9.190;2023-04-03T15:30:07;9.70;85.50
5128;DHT22;2582;48.770;9.190;2023-04-03T15:32:33;10.00;81.90
5128;DHT22;2582;48.770;9.190;2023-04-03T15:34:59;9.70;80.60
5128;DHT22;2582;48.770;9.190;2023-04-03T15:37:25;9.20;80.90
5128;DHT22;2582;48.770;9.190;2023-04-03T15:39:51;8.70;82.70
5128;DHT22;2582;48.770;9.190;2023-04-03T15:42:16;8.70;83.90
5128;DHT22;2582;48.770;9.190;2023-04-03T15:44:42;8.40;83.60
5128;DHT22;2582;48.770;9.190;2023-04-03T15:47:08;8.20;85.20
5128;DHT22;2582;48.770;9.190;2023-04-03T15:49:34;8.30;86.00
5128;DHT22;2582;48.770;9.190;2023-04-03T15:52:00;8.50;86.70
5128;DHT22;2582;48.770;9.190;2023-04-03T15:54:26;9.50;84.70
5128;DHT22;2582;48.770;9.190;2023-04-03T15:56:53;10.70;80.60
5128;DHT22;2582;48.770;9.190;2023-04-03T15:59:18;11.50;79.50
5128;DHT22;2582;48.770;9.190;2023-04-03T16:01:45;11.40;77.20
5128;DHT22;2582;48.770;9.190;2023-04-03T16:04:10;10.60;78.00
5128;DHT22;2582;48.770;9.190;2023-04-03T16:06:37;10.00;79.70
5128;DHT22;2582;48.770;9.190;2023-04-03T16:09:03;9.50;80.00
5128;DHT22;2582;48.770;9.190;2023-04-03T16:11:30;9.80;80.50
5128;DHT22;2582;48.770;9.190;2023-04-03T16:13:56;10.00;78.70
5128;DHT22;2582;48.770;9.190;2023-04-03T16:16:23;10.10;79.00
5128;DHT22;2582;48.770;9.190;2023-04-03T16:18:50;9.90;79.90
5128;DHT22;2582;48.770;9.190;2023-04-03T16:21:16;9.70;79.90
5128;DHT22;2582;48.770;9.190;2023-04-03T16:23:43;9.30;80.40
5128;DHT22;2582;48.770;9.190;2023-04-03T16:26:09;9.20;80.10
5128;DHT22;2582;48.770;9.190;2023-04-03T16:28:34;8.70;80.70
5128;DHT22;2582;48.770;9.190;2023-04-03T16:31:01;8.60;81.20
5128;DHT22;2582;48.770;9.190;2023-04-03T16:33:27;8.60;81.60
5128;DHT22;2582;48.770;9.190;2023-04-03T16:35:52;8.40;80.90
5128;DHT22;2582;48.770;9.190;2023-04-03T16:38:18;8.30;80.90
5128;DHT22;2582;48.770;9.190;2023-04-03T16:40:45;8.20;80.70
5128;DHT22;2582;48.770;9.190;2023-04-03T16:43:10;8.30;80.80
5128;DHT22;2582;48.770;9.190;2023-04-03T16:45:36;8.30;81.00
5128;DHT22;2582;48.770;9.190;2023-04-03T16:48:02;8.30;81.30
5128;DHT22;2582;48.770;9.190;2023-04-03T16:50:28;8.30;81.60
5128;DHT22;2582;48.770;9.190;2023-04-03T16:52:53;8.30;81.50
5128;DHT22;2582;48.770;9.190;2023-04-03T16:55:19;8.40;82.40
5128;DHT22;2582;48.770;9.190;2023-04-03T16:57:46;8.50;83.40
5128;DHT22;2582;48.770;9.190;2023-04-03T17:00:12;8.50;83.20
5128;DHT22;2582;48.770;9.190;2023-04-03T17:02:38;8.70;83.50
5128;DHT22;2582;48.770;9.190;2023-04-03T17:05:04;8.50;82.60
5128;DHT22;2582;48.770;9.190;2023-04-03T17:07:30;8.30;82.70
5128;DHT22;2582;48.770;9.190;2023-04-03T17:09:55;8.40;84.20
5128;DHT22;2582;48.770;9.190;2023-04-03T17:12:22;8.40;84.80
5128;DHT22;2582;48.770;9.190;2023-04-03T17:14:47;8.20;84.40
5128;DHT22;2582;48.770;9.190;2023-04-03T17:17:20;8.20;84.20
5128;DHT22;2582;48.770;9.190;2023-04-03T17:19:46;8.30;84.60
5128;DHT22;2582;48.770;9.190;2023-04-03T17:22:12;8.30;84.30
5128;DHT22;2582;48.770;9.190;2023-04-03T17:24:38;8.20;84.90
5128;DHT22;2582;48.770;9.190;2023-04-03T17:27:03;8.20;84.30
5128;DHT22;2582;48.770;9.190;2023-04-03T17:29:29;8.20;83.90
5128;DHT22;2582;48.770;9.190;2023-04-03T17:31:55;8.10;84.60
5128;DHT22;2582;48.770;9.190;2023-04-03T17:34:21;8.10;84.80
5128;DHT22;2582;48.770;9.190;2023-04-03T17:36:47;8.00;84.90
5128;DHT22;2582;48.770;9.190;2023-04-03T17:39:13;7.90;84.70
5128;DHT22;2582;48.770;9.190;2023-04-03T17:41:39;7.90;85.40
5128;DHT22;2582;48.770;9.190;2023-04-03T17:44:05;8.00;85.50
5128;DHT22;2582;48.770;9.190;2023-04-03T17:46:30;8.00;85.60
5128;DHT22;2582;48.770;9.190;2023-04-03T17:48:57;8.00;86.20
5128;DHT22;2582;48.770;9.190;2023-04-03T17:51:24;8.00;86.20
5128;DHT22;2582;48.770;9.190;2023-04-03T17:53:50;7.90;86.10
5128;DHT22;2582;48.770;9.190;2023-04-03T17:56:24;8.00;85.80
5128;DHT22;2582;48.770;9.190;2023-04-03T17:58:52;7.70;86.20
5128;DHT22;2582;48.770;9.190;2023-04-03T18:01:21;7.70;86.20
5128;DHT22;2582;48.770;9.190;2023-04-03T18:03:47;8.00;86.40
5128;DHT22;2582;48.770;9.190;2023-04-03T18:06:16;8.20;86.60
5128;DHT22;2582;48.770;9.190;2023-04-03T18:08:48;8.20;86.70
5128;DHT22;2582;48.770;9.190;2023-04-03T18:11:15;8.10;86.80
5128;DHT22;2582;48.770;9.190;2023-04-03T18:13:42;8.30;86.90
5128;DHT22;2582;48.770;9.190;2023-04-03T18:16:10;8.30;86.30
5128;DHT22;2582;48.770;9.190;2023-04-03T18:18:36;8.10;86.40
5128;DHT22;2582;48.770;9.190;2023-04-03T18:21:02;8.00;87.10
5128;DHT22;2582;48.770;9.190;2023-04-03T18:23:30;8.00;87.80
5128;DHT22;2582;48.770;9.190;2023-04-03T18:25:58;8.00;87.70
5128;DHT22;2582;48.770;9.190;2023-04-03T18:28:25;8.10;88.20
5128;DHT22;2582;48.770;9.190;2023-04-03T18:30:51;7.80;87.70
5128;DHT22;2582;48.770;9.190;2023-04-03T18:33:17;7.70;88.70
5128;DHT22;2582;48.770;9.190;2023-04-03T18:35:43;7.50;88.70
5128;DHT22;2582;48.770;9.190;2023-04-03T18:38:08;7.50;89.00